Time;durP1;ratioP1;P1;durP2;ratioP2;P2;SDS_P1;SDS_P2;PMS_P1;PMS_P2;Temp;Humidity;BMP_temperature;BMP_pressure;BME280_temperature;BME280_humidity;BME280_pressure;Samples;Min_cycle;Max_cycle;Signal;HPM_P1;HPM_P2
2022/04/26 03:36:45;;;;;;;11.60;6.17;;;4.80;99.90;;;;;;5100248;28;20047;-85
2022/04/26 03:39:11;;;;;;;16.40;7.53;;;4.80;99.90;;;;;;5098459;28;20468;-85
2022/04/26 03:41:37;;;;;;;15.63;6.63;;;4.80;99.90;;;;;;5098757;28;20021;-85
2022/04/26 03:44:03;;;;;;;19.07;8.27;;;4.80;99.90;;;;;;5101392;28;20019;-84
2022/04/26 03:46:29;;;;;;;20.03;6.97;;;4.80;99.90;;;;;;5101920;28;20380;-84
2022/04/26 03:48:54;;;;;;;16.37;6.47;;;4.70;99.90;;;;;;5100469;28;20482;-86
2022/04/26 03:51:20;;;;;;;19.67;7.33;;;4.70;99.90;;;;;;5095783;28;20023;-85
2022/04/26 03:53:47;;;;;;;17.13;7.07;;;4.60;99.90;;;;;;5096166;28;20028;-85
2022/04/26 03:56:13;;;;;;;15.10;6.77;;;4.70;99.90;;;;;;5100521;28;20026;-85
2022/04/26 03:58:38;;;;;;;16.23;6.53;;;4.60;99.90;;;;;;5105448;28;20036;-85
2022/04/26 04:01:04;;;;;;;12.83;6.67;;;4.70;99.90;;;;;;5106282;28;20031;-85
2022/04/26 04:03:30;;;;;;;23.00;7.23;;;4.60;99.90;;;;;;5101732;28;20020;-85
2022/04/26 04:05:56;;;;;;;10.47;6.83;;;4.60;99.90;;;;;;5099984;28;20528;-85
2022/04/26 04:08:22;;;;;;;18.13;7.47;;;4.60;99.90;;;;;;5098859;28;20016;-86
2022/04/26 04:10:48;;;;;;;16.23;7.77;;;4.50;99.90;;;;;;5102169;28;20062;-86
2022/04/26 04:13:13;;;;;;;13.73;6.93;;;4.60;99.90;;;;;;5102085;28;20443;-87
2022/04/26 04:15:39;;;;;;;17.60;7.40;;;4.50;99.90;;;;;;5124587;22;20024;-72
2022/04/26 04:19:17;;;;;;;16.77;7.33;;;4.50;99.90;;;;;;5113341;28;20043;-73
2022/04/26 04:20:52;;;;;;;22.13;7.90;;;4.50;99.90;;;;;;5108385;28;20027;-73
2022/04/26 04:23:18;;;;;;;16.40;7.17;;;4.50;99.90;;;;;;5113729;27;20050;-73
2022/04/26 04:25:44;;;;;;;17.00;7.17;;;4.40;99.90;;;;;;5111323;28;20047;-72
2022/04/26 04:28:09;;;;;;;18.57;8.00;;;4.40;99.90;;;;;;5099596;28;20028;-72
2022/04/26 04:30:35;;;;;;;20.70;8.30;;;4.50;99.90;;;;;;5106271;28;20023;-72
2022/04/26 04:33:01;;;;;;;19.07;8.13;;;4.50;99.90;;;;;;5103296;28;20114;-73
2022/04/26 04:35:26;;;;;;;19.47;7.83;;;4.50;99.90;;;;;;5100626;28;20042;-72
2022/04/26 04:37:52;;;;;;;16.23;7.23;;;4.50;99.90;;;;;;5100895;28;20052;-73
2022/04/26 04:40:17;;;;;;;21.90;8.40;;;4.50;99.90;;;;;;5103565;28;20028;-73
2022/04/26 04:42:45;;;;;;;24.80;8.53;;;4.40;99.90;;;;;;5105795;28;20472;-72
2022/04/26 04:45:10;;;;;;;20.20;7.87;;;4.40;99.90;;;;;;5101081;28;20165;-73
2022/04/26 04:47:36;;;;;;;28.90;9.33;;;4.50;99.90;;;;;;5102180;28;20095;-72
2022/04/26 04:50:02;;;;;;;22.30;8.17;;;4.60;99.90;;;;;;5100933;28;20054;-72
2022/04/26 04:52:28;;;;;;;20.50;7.87;;;4.60;99.90;;;;;;5104609;28;20055;-73
2022/04/26 04:54:53;;;;;;;23.20;8.80;;;4.60;99.90;;;;;;5101111;28;20028;-73
2022/04/26 04:57:19;;;;;;;22.97;7.37;;;4.60;99.90;;;;;;5101035;28;20461;-73
2022/04/26 04:59:45;;;;;;;16.87;7.37;;;4.50;99.90;;;;;;5105936;28;20480;-73
2022/04/26 05:02:10;;;;;;;25.07;8.00;;;4.60;99.90;;;;;;5097429;28;20031;-72
2022/04/26 05:04:36;;;;;;;20.77;8.23;;;4.60;99.90;;;;;;5104317;28;20601;-72
2022/04/26 05:07:03;;;;;;;21.60;8.13;;;4.60;99.90;;;;;;5100171;28;20016;-72
2022/04/26 05:09:29;;;;;;;20.90;7.47;;;4.60;99.90;;;;;;5103807;28;20028;-73
2022/04/26 05:11:54;;;;;;;16.83;7.37;;;4.60;99.90;;;;;;5103965;28;20030;-72
2022/04/26 05:14:20;;;;;;;22.87;8.40;;;4.60;99.90;;;;;;5100454;28;20024;-72
2022/04/26 05:16:46;;;;;;;24.47;9.17;;;4.60;99.90;;;;;;5134629;22;20040;-87
2022/04/26 05:19:12;;;;;;;20.17;7.90;;;4.80;99.90;;;;;;5094744;28;20063;-87
2022/04/26 05:21:37;;;;;;;30.87;8.47;;;4.90;99.90;;;;;;5104787;28;20030;-87
2022/04/26 05:26:48;;;;;;;19.57;8.70;;;5.00;99.90;;;;;;5094364;28;20025;-88
2022/04/26 05:29:13;;;;;;;24.13;8.87;;;5.00;99.90;;;;;;5084597;28;20392;-87
2022/04/26 05:31:39;;;;;;;24.20;9.97;;;5.10;99.90;;;;;;5087941;28;20016;-87
2022/04/26 05:34:05;;;;;;;20.27;7.97;;;5.20;99.90;;;;;;5093533;28;20016;-88
2022/04/26 05:36:30;;;;;;;16.23;8.17;;;5.20;99.90;;;;;;5086132;28;20016;-88
2022/04/26 05:38:56;;;;;;;21.57;8.03;;;5.30;99.90;;;;;;5086092;28;20074;-89
2022/04/26 05:41:22;;;;;;;18.07;8.13;;;5.30;99.90;;;;;;5082016;28;20017;-87
2022/04/26 05:43:48;;;;;;;16.37;8.03;;;5.40;99.90;;;;;;5090404;28;20077;-88
2022/04/26 05:46:13;;;;;;;20.13;7.63;;;5.50;99.90;;;;;;5089219;28;20017;-88
2022/04/26 05:48:40;;;;;;;23.43;8.73;;;5.50;99.90;;;;;;5086284;28;20056;-88
2022/04/26 05:51:06;;;;;;;15.63;7.63;;;5.50;99.90;;;;;;5086945;28;20020;-87
2022/04/26 05:53:32;;;;;;;23.75;7.75;;;5.60;99.90;;;;;;5078904;28;20028;-88
2022/04/26 05:55:58;;;;;;;19.25;7.70;;;5.60;99.90;;;;;;5093126;28;20528;-89
2022/04/26 05:58:24;;;;;;;15.50;8.67;;;5.70;99.90;;;;;;5100901;28;20042;-88
2022/04/26 06:00:49;;;;;;;18.33;8.10;;;5.80;99.90;;;;;;5084159;28;20031;-88
2022/04/26 06:03:15;;;;;;;20.42;8.07;;;5.90;99.90;;;;;;5087968;28;20013;-88
2022/04/26 06:05:41;;;;;;;21.27;8.73;;;5.90;99.90;;;;;;5091256;28;20626;-88
2022/04/26 06:08:08;;;;;;;20.88;7.57;;;6.00;99.90;;;;;;5086622;28;20024;-88
2022/04/26 06:10:36;;;;;;;25.58;7.60;;;6.10;99.90;;;;;;5094066;28;20377;-88
2022/04/26 06:13:02;;;;;;;17.38;7.00;;;6.10;99.90;;;;;;5083992;28;20020;-88
2022/04/26 06:18:08;;;;;;;13.65;6.68;;;6.30;99.90;;;;;;5110312;28;20108;-74
2022/04/26 06:20:34;;;;;;;15.57;7.22;;;6.40;99.90;;;;;;5111615;28;20027;-74
2022/04/26 06:23:01;;;;;;;19.27;7.10;;;6.50;99.90;;;;;;5109126;28;20024;-74
2022/04/26 06:25:27;;;;;;;21.40;6.95;;;6.60;99.90;;;;;;5111622;28;20033;-73
2022/04/26 06:27:52;;;;;;;14.70;6.82;;;6.70;99.90;;;;;;5111339;28;20476;-73
2022/04/26 06:30:18;;;;;;;22.02;7.45;;;6.70;99.90;;;;;;5110748;28;20081;-73
2022/04/26 06:32:44;;;;;;;14.93;6.97;;;6.80;99.90;;;;;;5110468;28;20499;-73
2022/04/26 06:35:10;;;;;;;14.85;6.45;;;6.90;99.90;;;;;;5110970;28;20047;-73
2022/04/26 06:37:37;;;;;;;15.07;5.88;;;7.00;99.90;;;;;;5110074;28;20023;-73
2022/04/26 06:40:05;;;;;;;16.50;6.95;;;7.10;99.90;;;;;;5109368;28;20088;-73
2022/04/26 06:42:31;;;;;;;15.18;6.72;;;7.30;99.90;;;;;;5110708;28;20054;-73
2022/04/26 06:44:57;;;;;;;11.88;6.35;;;7.40;99.90;;;;;;5106743;28;20547;-73
2022/04/26 06:47:22;;;;;;;17.67;6.57;;;7.50;99.90;;;;;;5082695;28;20092;-73
2022/04/26 06:49:48;;;;;;;11.75;6.22;;;7.60;99.90;;;;;;5099811;28;20396;-73
2022/04/26 06:52:14;;;;;;;16.05;6.15;;;7.60;99.90;;;;;;5108487;28;20019;-74
2022/04/26 06:54:40;;;;;;;11.43;5.53;;;7.70;99.90;;;;;;5110138;28;20095;-73
2022/04/26 06:57:06;;;;;;;15.60;5.45;;;7.90;99.90;;;;;;5110825;28;20024;-73
2022/04/26 06:59:31;;;;;;;11.02;5.10;;;7.90;99.90;;;;;;5104418;28;20445;-74
2022/04/26 07:01:57;;;;;;;10.85;5.20;;;8.10;99.90;;;;;;5108622;28;20107;-73
2022/04/26 07:04:23;;;;;;;12.40;5.57;;;8.20;99.90;;;;;;5110860;28;20023;-73
2022/04/26 07:06:48;;;;;;;13.10;5.32;;;8.40;99.90;;;;;;5079730;28;20032;-73
2022/04/26 07:09:15;;;;;;;16.40;5.88;;;8.40;99.90;;;;;;5097546;28;20039;-74
2022/04/26 07:11:42;;;;;;;10.80;4.85;;;8.50;99.90;;;;;;5097886;28;20020;-73
2022/04/26 07:14:10;;;;;;;14.57;4.90;;;8.50;99.90;;;;;;5096837;28;20030;-73
2022/04/26 07:16:36;;;;;;;10.50;4.90;;;8.60;99.90;;;;;;5143420;22;20052;-83
2022/04/26 07:19:01;;;;;;;10.38;4.80;;;8.70;99.90;;;;;;5097241;28;20043;-84
2022/04/26 07:21:27;;;;;;;12.82;5.32;;;8.70;99.90;;;;;;5099049;28;20030;-83
2022/04/26 07:23:53;;;;;;;13.13;4.95;;;8.80;99.90;;;;;;5102166;28;20027;-84
2022/04/26 07:26:18;;;;;;;12.45;5.22;;;8.90;99.90;;;;;;5101661;28;20081;-84
2022/04/26 07:28:44;;;;;;;11.63;4.43;;;9.00;99.90;;;;;;5100599;28;20648;-85
2022/04/26 07:31:09;;;;;;;9.73;4.00;;;9.00;99.90;;;;;;5101780;28;20384;-84
2022/04/26 07:36:22;;;;;;;9.20;3.45;;;9.20;99.90;;;;;;5101165;28;20042;-83
2022/04/26 07:38:49;;;;;;;11.52;4.07;;;9.30;99.90;;;;;;5106782;28;20130;-84
2022/04/26 07:41:15;;;;;;;9.32;3.50;;;9.50;99.90;;;;;;5092845;28;20017;-84
2022/04/26 07:43:41;;;;;;;13.48;3.83;;;9.50;99.90;;;;;;5096227;28;20042;-84
2022/04/26 07:46:07;;;;;;;12.13;3.80;;;9.60;99.90;;;;;;5108812;28;20028;-84
2022/04/26 07:48:37;;;;;;;7.35;3.20;;;9.60;99.90;;;;;;5096982;28;20420;-84
2022/04/26 07:51:04;;;;;;;5.30;2.80;;;9.80;99.90;;;;;;5099278;28;20023;-84
2022/04/26 07:53:30;;;;;;;7.53;2.95;;;9.90;99.90;;;;;;5091662;28;20119;-84
2022/04/26 07:55:56;;;;;;;9.50;4.28;;;10.00;99.90;;;;;;5090164;28;20115;-85
2022/04/26 07:58:21;;;;;;;6.88;3.55;;;10.20;99.90;;;;;;5101082;28;20044;-85
2022/04/26 08:00:47;;;;;;;11.73;3.05;;;10.20;99.90;;;;;;5091710;28;20399;-82
2022/04/26 08:03:14;;;;;;;8.35;2.60;;;10.30;99.90;;;;;;5098104;28;20064;-80
2022/04/26 08:05:40;;;;;;;6.93;1.90;;;10.40;99.90;;;;;;5093837;28;20110;-80
2022/04/26 08:08:06;;;;;;;4.38;2.03;;;10.60;99.90;;;;;;5097133;28;20119;-79
2022/04/26 08:10:32;;;;;;;6.63;2.08;;;10.70;99.90;;;;;;5100641;28;20103;-77
2022/04/26 08:12:58;;;;;;;2.58;1.52;;;10.90;97.10;;;;;;5095505;28;20039;-76
2022/04/26 08:15:24;;;;;;;6.47;1.73;;;10.90;96.10;;;;;;5091680;28;20035;-81
2022/04/26 08:17:49;;;;;;;3.13;1.30;;;10.90;95.40;;;;;;5105081;28;20445;-82
2022/04/26 08:20:16;;;;;;;4.82;1.77;;;10.90;97.10;;;;;;5099095;28;20103;-78
2022/04/26 08:22:42;;;;;;;8.93;1.80;;;11.00;97.00;;;;;;5098791;28;20024;-81
2022/04/26 08:27:52;;;;;;;14.18;3.70;;;11.30;92.60;;;;;;5097000;28;20108;-82
2022/04/26 08:30:17;;;;;;;2.80;1.83;;;11.40;93.80;;;;;;5094815;28;20107;-79
2022/04/26 08:32:45;;;;;;;3.92;1.30;;;11.50;95.60;;;;;;5093786;28;20765;-79
2022/04/26 08:35:14;;;;;;;3.95;1.48;;;11.50;90.50;;;;;;5095187;28;20024;-85
2022/04/26 08:37:40;;;;;;;2.00;1.40;;;11.60;90.30;;;;;;5101556;28;20057;-76
2022/04/26 08:40:10;;;;;;;3.45;1.50;;;11.70;91.40;;;;;;5100889;28;20040;-76
2022/04/26 08:42:44;;;;;;;1.50;1.40;;;11.90;90.80;;;;;;5106681;28;20519;-75
2022/04/26 08:45:15;;;;;;;2.75;1.45;;;12.20;85.80;;;;;;5100157;28;20015;-76
2022/04/26 08:53:16;;;;;;;4.60;1.30;;;13.00;77.30;;;;;;5112761;28;20076;-74
2022/04/26 08:55:45;;;;;;;2.13;1.48;;;13.00;79.00;;;;;;5111457;28;20027;-74
2022/04/26 08:58:13;;;;;;;2.85;1.27;;;13.20;77.20;;;;;;5102178;28;20399;-74
2022/04/26 09:01:10;;;;;;;5.07;1.50;;;13.30;72.60;;;;;;5105693;28;20069;-74
2022/04/26 09:03:54;;;;;;;3.00;1.38;;;13.50;71.30;;;;;;5100878;28;20028;-71
2022/04/26 09:06:34;;;;;;;6.00;1.40;;;13.60;68.50;;;;;;5103153;28;20047;-75
2022/04/26 09:09:08;;;;;;;2.78;1.02;;;13.70;68.60;;;;;;5103838;28;20493;-75
2022/04/26 09:11:34;;;;;;;3.13;1.23;;;13.90;68.20;;;;;;5095656;28;20081;-76
2022/04/26 09:14:02;;;;;;;3.55;1.30;;;14.40;63.30;;;;;;5100704;28;20431;-76
2022/04/26 09:16:28;;;;;;;2.88;1.15;;;14.90;61.10;;;;;;5100461;27;20137;-75
2022/04/26 09:19:05;;;;;;;2.25;1.10;;;15.20;60.50;;;;;;5106118;28;20057;-73
2022/04/26 09:21:35;;;;;;;1.10;1.00;;;15.50;62.90;;;;;;5099079;28;20508;-73
2022/04/26 09:24:06;;;;;;;4.50;1.40;;;15.60;60.90;;;;;;5102113;28;20065;-76
2022/04/26 09:26:37;;;;;;;4.50;1.10;;;15.80;55.20;;;;;;5102610;28;20020;-74
2022/04/26 09:29:05;;;;;;;4.53;1.15;;;16.50;55.80;;;;;;5104969;28;20031;-76
2022/04/26 09:31:33;;;;;;;3.00;0.95;;;17.30;53.70;;;;;;5097313;28;20058;-76
2022/04/26 09:34:05;;;;;;;4.32;1.08;;;18.10;52.70;;;;;;5101914;28;20488;-74
2022/04/26 09:36:35;;;;;;;1.92;0.80;;;18.90;47.00;;;;;;5094912;28;20055;-75
2022/04/26 09:39:04;;;;;;;2.45;0.90;;;20.50;44.60;;;;;;5091521;28;20044;-76
2022/04/26 09:41:32;;;;;;;4.38;1.10;;;21.00;40.70;;;;;;5113108;27;20024;-74
2022/04/26 09:44:03;;;;;;;2.10;0.80;;;21.10;39.60;;;;;;5097979;28;20047;-76
2022/04/26 09:46:41;;;;;;;2.22;1.23;;;21.10;39.20;;;;;;5126776;22;20062;-79
2022/04/26 09:49:11;;;;;;;2.35;1.00;;;21.40;37.50;;;;;;5086446;28;20683;-80
2022/04/26 09:51:40;;;;;;;2.40;1.23;;;22.20;37.80;;;;;;5087195;28;20034;-82
2022/04/26 09:54:06;;;;;;;4.80;0.93;;;23.50;35.70;;;;;;5084247;28;20020;-84
2022/04/26 09:56:32;;;;;;;2.58;0.80;;;23.60;35.10;;;;;;5080734;28;20501;-84
2022/04/26 09:59:00;;;;;;;2.50;0.80;;;23.40;33.80;;;;;;5066243;28;20136;-91
2022/04/26 10:01:35;;;;;;;1.50;0.80;;;24.50;35.30;;;;;;5067435;28;20033;-84
2022/04/26 10:04:06;;;;;;;2.75;0.80;;;24.40;31.80;;;;;;5065133;28;20028;-83
2022/04/26 10:06:38;;;;;;;1.92;1.00;;;23.60;35.30;;;;;;5066225;28;20473;-84
2022/04/26 10:09:08;;;;;;;1.85;0.80;;;22.80;32.20;;;;;;5067203;28;20063;-84
2022/04/26 10:11:35;;;;;;;3.42;1.05;;;23.50;35.50;;;;;;5067193;28;20020;-83
2022/04/26 10:14:04;;;;;;;1.95;0.98;;;23.20;35.00;;;;;;5066867;28;20023;-81
2022/04/26 10:16:31;;;;;;;2.30;0.90;;;24.10;33.10;;;;;;5067169;28;20028;-85
2022/04/26 10:19:08;;;;;;;2.55;1.05;;;23.00;31.20;;;;;;5066409;28;20036;-83
2022/04/26 10:21:39;;;;;;;2.63;1.77;;;23.90;31.60;;;;;;5064226;28;20024;-84
2022/04/26 10:24:06;;;;;;;3.45;1.20;;;23.70;32.90;;;;;;5066044;28;20059;-83
2022/04/26 10:26:33;;;;;;;6.28;1.00;;;24.00;32.60;;;;;;5066640;28;20066;-84
2022/04/26 10:29:02;;;;;;;1.60;0.90;;;24.60;29.20;;;;;;5066633;28;20485;-83
2022/04/26 10:31:56;;;;;;;1.38;0.90;;;25.10;29.70;;;;;;5067055;28;20341;-79
2022/04/26 10:34:24;;;;;;;1.13;0.98;;;25.20;29.90;;;;;;5062902;28;20473;-78
2022/04/26 10:36:54;;;;;;;0.98;0.80;;;27.10;31.80;;;;;;5064859;28;20393;-77
2022/04/26 10:39:24;;;;;;;2.33;1.08;;;25.90;27.80;;;;;;5066668;28;20036;-77
2022/04/26 10:41:51;;;;;;;2.15;0.90;;;24.60;30.10;;;;;;5064467;28;20048;-79
2022/04/26 10:44:16;;;;;;;3.33;1.08;;;25.10;28.40;;;;;;5066076;28;20035;-80
2022/04/26 10:47:06;;;;;;;1.67;0.70;;;24.80;28.80;;;;;;5093915;22;20048;-75
2022/04/26 10:49:32;;;;;;;2.70;0.80;;;25.80;26.10;;;;;;5081700;28;20058;-73
2022/04/26 10:52:19;;;;;;;0.85;0.80;;;25.70;26.80;;;;;;5075380;28;20424;-73
2022/04/26 10:57:21;;;;;;;1.45;0.70;;;26.50;26.50;;;;;;5070348;28;20035;-71
2022/04/26 10:59:59;;;;;;;1.02;1.00;;;26.90;27.50;;;;;;5060155;28;20028;-73
2022/04/26 11:02:28;;;;;;;2.22;1.00;;;26.90;27.40;;;;;;5056176;28;20081;-78
2022/04/26 11:05:10;;;;;;;5.15;1.10;;;27.50;26.20;;;;;;5057127;28;20118;-76
2022/04/26 11:07:41;;;;;;;1.60;0.80;;;27.60;25.60;;;;;;5057235;28;20020;-76
2022/04/26 11:10:09;;;;;;;2.47;0.73;;;27.60;26.60;;;;;;5056040;28;20105;-73
2022/04/26 11:12:37;;;;;;;5.00;0.80;;;28.20;24.10;;;;;;5054334;28;20017;-75
2022/04/26 11:15:15;;;;;;;1.23;0.68;;;28.20;26.10;;;;;;5054786;28;20023;-76
2022/04/26 11:17:42;;;;;;;3.20;1.23;;;28.70;26.80;;;;;;5048640;28;20113;-74
2022/04/26 11:20:14;;;;;;;1.13;0.77;;;28.70;25.20;;;;;;5050960;28;20163;-75
2022/04/26 11:22:53;;;;;;;3.17;0.88;;;27.70;24.70;;;;;;5049943;28;20032;-75
2022/04/26 11:28:09;;;;;;;0.88;0.50;;;28.20;25.80;;;;;;5043286;28;20649;-74
2022/04/26 11:30:45;;;;;;;2.30;0.77;;;27.70;24.40;;;;;;5045611;28;20043;-76
2022/04/26 11:33:18;;;;;;;1.75;0.80;;;27.90;24.80;;;;;;5046892;28;20028;-76
2022/04/26 11:35:45;;;;;;;1.75;0.90;;;28.60;26.40;;;;;;5047127;28;20032;-75
2022/04/26 11:38:16;;;;;;;1.83;0.70;;;30.00;23.50;;;;;;5043864;28;20048;-76
2022/04/26 11:40:47;;;;;;;1.45;0.60;;;29.50;23.90;;;;;;5039588;28;20481;-74
2022/04/26 11:43:15;;;;;;;3.17;1.00;;;29.70;25.10;;;;;;5040374;28;20016;-75
2022/04/26 11:45:44;;;;;;;1.58;0.80;;;30.30;25.50;;;;;;5039583;28;20028;-74
2022/04/26 11:48:16;;;;;;;2.42;0.93;;;29.40;23.60;;;;;;5038305;28;20032;-75
2022/04/26 11:50:44;;;;;;;1.15;0.60;;;30.00;24.20;;;;;;5040453;28;20075;-74
2022/04/26 11:53:12;;;;;;;1.00;0.73;;;29.10;24.40;;;;;;5035321;28;20028;-74
2022/04/26 11:55:39;;;;;;;0.70;0.70;;;28.30;23.60;;;;;;5037884;28;20135;-72
2022/04/26 11:58:08;;;;;;;2.55;0.60;;;27.30;24.20;;;;;;5033037;28;20033;-73
2022/04/26 12:00:34;;;;;;;1.50;0.70;;;29.30;25.30;;;;;;5038042;28;20025;-73
2022/04/26 12:03:02;;;;;;;2.53;0.70;;;29.40;23.30;;;;;;5037917;28;20110;-74
2022/04/26 12:05:28;;;;;;;1.33;0.70;;;27.60;25.10;;;;;;5038079;28;20025;-72
2022/04/26 12:07:55;;;;;;;1.08;0.70;;;29.10;24.00;;;;;;5039173;28;20035;-73
2022/04/26 12:10:29;;;;;;;1.50;0.60;;;29.50;23.20;;;;;;5038018;28;20028;-73
2022/04/26 12:13:01;;;;;;;1.20;0.57;;;30.30;22.80;;;;;;5036236;28;20137;-71
2022/04/26 12:15:30;;;;;;;8.60;0.80;;;30.20;23.80;;;;;;5036321;28;20029;-72
2022/04/26 12:18:07;;;;;;;1.38;0.77;;;31.30;23.70;;;;;;5034306;28;20032;-72
2022/04/26 12:20:36;;;;;;;0.98;0.75;;;31.50;22.90;;;;;;5032329;28;20016;-71
2022/04/26 12:23:05;;;;;;;2.05;0.70;;;29.70;23.00;;;;;;5032204;28;20143;-71
2022/04/26 12:25:33;;;;;;;1.73;0.70;;;27.60;24.70;;;;;;5031448;28;20552;-72
2022/04/26 12:28:07;;;;;;;1.10;0.65;;;27.60;25.30;;;;;;5034086;28;20116;-72
2022/04/26 12:30:37;;;;;;;1.13;0.80;;;27.80;26.20;;;;;;5027599;28;20098;-74
2022/04/26 12:33:05;;;;;;;2.08;1.13;;;28.40;25.90;;;;;;5026814;28;20060;-74
2022/04/26 12:35:31;;;;;;;2.38;1.05;;;28.90;24.50;;;;;;5030154;28;20578;-73
2022/04/26 12:38:09;;;;;;;1.15;0.80;;;28.90;24.30;;;;;;5022502;28;20623;-74
2022/04/26 12:40:35;;;;;;;3.13;1.10;;;30.30;24.10;;;;;;5027047;28;20533;-75
2022/04/26 12:43:02;;;;;;;1.42;0.55;;;31.60;23.00;;;;;;5025482;28;20115;-74
2022/04/26 12:45:28;;;;;;;3.85;1.23;;;32.80;24.20;;;;;;5024582;28;20032;-74
2022/04/26 12:50:55;;;;;;;3.05;0.73;;;31.30;23.20;;;;;;5028188;28;20528;-75
2022/04/26 12:53:28;;;;;;;2.78;0.80;;;30.80;22.00;;;;;;5025265;28;20021;-74
2022/04/26 12:56:04;;;;;;;1.67;0.90;;;30.30;23.50;;;;;;5073582;28;20111;-76
2022/04/26 12:58:35;;;;;;;1.80;0.90;;;30.00;22.50;;;;;;5071734;28;20028;-76
2022/04/26 13:01:01;;;;;;;2.28;1.02;;;29.70;23.60;;;;;;5071815;28;20028;-75
2022/04/26 13:03:27;;;;;;;1.02;0.90;;;29.30;22.80;;;;;;5071461;28;20033;-75
2022/04/26 13:06:07;;;;;;;0.73;0.73;;;30.70;24.40;;;;;;5076322;28;20016;-75
2022/04/26 13:08:33;;;;;;;1.52;0.80;;;31.40;22.30;;;;;;5071614;28;20373;-76
2022/04/26 13:11:00;;;;;;;1.38;0.90;;;30.40;23.20;;;;;;5072099;28;20435;-76
2022/04/26 13:13:27;;;;;;;1.17;0.88;;;32.40;24.70;;;;;;5072392;28;20070;-75
2022/04/26 13:18:26;;;;;;;1.30;0.68;;;31.00;22.30;;;;;;5093327;28;20050;-85
2022/04/26 13:20:54;;;;;;;1.15;0.65;;;32.40;22.50;;;;;;5106405;28;20101;-86
2022/04/26 13:23:20;;;;;;;1.45;0.75;;;32.00;20.70;;;;;;5111378;28;20398;-84
2022/04/26 13:25:46;;;;;;;3.15;1.00;;;33.00;22.10;;;;;;5105607;27;20099;-83
2022/04/26 13:28:12;;;;;;;2.65;1.00;;;32.80;22.50;;;;;;5091520;28;20119;-90
2022/04/26 13:30:39;;;;;;;1.98;0.90;;;32.00;23.40;;;;;;5087869;28;20119;-88
2022/04/26 13:33:05;;;;;;;1.65;0.95;;;32.20;21.90;;;;;;5090753;28;20055;-84
2022/04/26 13:35:31;;;;;;;1.10;0.70;;;33.00;22.10;;;;;;5085089;28;20463;-84
2022/04/26 13:38:01;;;;;;;1.80;0.75;;;33.60;22.10;;;;;;5090888;28;20048;-86
2022/04/26 13:40:27;;;;;;;2.00;0.90;;;30.00;20.90;;;;;;5082524;28;20067;-82
2022/04/26 13:42:53;;;;;;;0.60;0.50;;;30.30;22.90;;;;;;5090608;28;20050;-84
2022/04/26 13:45:20;;;;;;;2.22;0.88;;;29.80;23.50;;;;;;5091027;28;20377;-87
2022/04/26 13:47:46;;;;;;;2.63;0.90;;;31.70;24.10;;;;;;5084703;28;20467;-86
2022/04/26 13:50:12;;;;;;;0.90;0.80;;;32.40;22.10;;;;;;5081342;28;20079;-85
2022/04/26 13:52:41;;;;;;;1.58;0.80;;;33.10;21.50;;;;;;5078670;28;20377;-87
2022/04/26 13:55:07;;;;;;;1.02;0.90;;;31.20;21.20;;;;;;5084724;28;20487;-88
2022/04/26 13:57:33;;;;;;;3.40;0.60;;;32.50;22.50;;;;;;5090631;28;20031;-88
2022/04/26 13:59:59;;;;;;;1.17;0.90;;;33.90;21.70;;;;;;5086826;28;20104;-89
2022/04/26 14:02:24;;;;;;;3.03;0.80;;;32.90;22.70;;;;;;5084092;28;20602;-88
2022/04/26 14:04:50;;;;;;;1.27;0.80;;;31.80;20.50;;;;;;5086357;28;20092;-84
2022/04/26 14:07:17;;;;;;;2.05;0.90;;;30.00;21.40;;;;;;5090208;28;20012;-88
2022/04/26 14:09:43;;;;;;;1.23;1.00;;;29.90;22.60;;;;;;5083982;28;20033;-84
2022/04/26 14:12:11;;;;;;;0.95;0.43;;;32.40;22.60;;;;;;5084451;28;20048;-84
2022/04/26 14:22:51;;;;;;;0.60;0.60;;;31.00;19.90;;;;;;5092825;28;20050;-76
2022/04/26 14:25:16;;;;;;;3.15;0.85;;;32.50;21.30;;;;;;5096648;28;20027;-76
2022/04/26 14:27:44;;;;;;;0.60;0.60;;;33.50;21.60;;;;;;5093321;28;20030;-76
2022/04/26 14:30:12;;;;;;;0.90;0.70;;;34.40;21.90;;;;;;5088051;28;20043;-75
2022/04/26 14:32:38;;;;;;;2.05;0.70;;;35.20;20.80;;;;;;5089266;28;20054;-75
2022/04/26 14:35:04;;;;;;;1.30;0.80;;;32.90;19.50;;;;;;5088704;28;20027;-74
2022/04/26 14:37:31;;;;;;;0.50;0.50;;;31.40;21.10;;;;;;5088477;28;20016;-74
2022/04/26 14:39:57;;;;;;;1.20;0.80;;;31.40;21.80;;;;;;5082697;28;20043;-74
2022/04/26 14:42:23;;;;;;;0.80;0.75;;;31.10;20.70;;;;;;5088016;28;20024;-74
2022/04/26 14:44:49;;;;;;;1.90;1.00;;;31.20;20.70;;;;;;5083243;28;20016;-76
2022/04/26 14:47:15;;;;;;;1.13;0.90;;;32.60;21.30;;;;;;5089059;28;20122;-75
2022/04/26 14:49:41;;;;;;;1.73;0.77;;;32.10;20.90;;;;;;5082734;28;20036;-75
2022/04/26 14:52:07;;;;;;;1.05;0.80;;;31.60;20.00;;;;;;5080480;28;20020;-75
2022/04/26 14:54:34;;;;;;;1.55;0.90;;;32.20;20.90;;;;;;5075335;28;20545;-73
2022/04/26 14:56:59;;;;;;;2.08;0.80;;;30.60;20.80;;;;;;5087229;28;20028;-74
2022/04/26 14:59:25;;;;;;;1.63;0.88;;;30.10;21.90;;;;;;5078896;28;20024;-75
2022/04/26 15:01:52;;;;;;;3.45;0.77;;;31.10;21.10;;;;;;5081635;28;20099;-75
2022/04/26 15:04:22;;;;;;;1.10;0.65;;;32.30;21.20;;;;;;5080207;28;20024;-74
2022/04/26 15:06:49;;;;;;;2.08;0.80;;;31.40;20.80;;;;;;5086452;28;20012;-75
2022/04/26 15:17:44;;;;;;;1.88;0.88;;;31.10;20.30;;;;;;5109939;22;20054;-79
2022/04/26 15:20:12;;;;;;;1.35;0.80;;;28.20;22.10;;;;;;5104000;28;20383;-79
2022/04/26 15:22:38;;;;;;;2.05;1.00;;;27.80;24.20;;;;;;5104864;28;20484;-80
2022/04/26 15:25:06;;;;;;;3.25;1.20;;;26.50;23.50;;;;;;5107289;28;20020;-85
2022/04/26 15:27:34;;;;;;;1.58;1.30;;;25.40;24.60;;;;;;5099664;28;20107;-77
2022/04/26 15:30:03;;;;;;;2.63;1.20;;;24.20;25.50;;;;;;5091209;28;20492;-76
2022/04/26 15:32:29;;;;;;;1.38;1.23;;;23.20;26.70;;;;;;5094739;28;20028;-79
2022/04/26 15:34:55;;;;;;;2.60;1.27;;;24.40;27.50;;;;;;5097033;28;20024;-81
2022/04/26 15:37:21;;;;;;;1.95;1.17;;;26.50;26.40;;;;;;5101200;28;20031;-79
2022/04/26 15:39:47;;;;;;;3.25;1.40;;;27.70;23.90;;;;;;5095747;28;20028;-79
2022/04/26 15:42:14;;;;;;;1.15;0.95;;;27.50;22.80;;;;;;5101214;28;20051;-80
2022/04/26 15:44:40;;;;;;;2.75;1.10;;;27.80;24.70;;;;;;5103169;28;20501;-78
2022/04/26 15:47:06;;;;;;;3.40;1.10;;;28.00;24.10;;;;;;5098781;28;20145;-80
2022/04/26 15:49:32;;;;;;;2.45;1.20;;;27.80;24.90;;;;;;5100141;28;20389;-80
2022/04/26 15:51:57;;;;;;;2.35;1.13;;;27.10;24.40;;;;;;5101136;28;20051;-81
2022/04/26 15:54:24;;;;;;;2.75;0.90;;;27.90;24.70;;;;;;5103685;28;20046;-82
2022/04/26 15:56:49;;;;;;;3.35;1.33;;;26.60;25.10;;;;;;5099696;28;20388;-80
2022/04/26 15:59:15;;;;;;;1.25;1.15;;;25.60;24.90;;;;;;5098581;28;20032;-82
2022/04/26 16:01:41;;;;;;;1.10;1.00;;;24.80;26.90;;;;;;5100436;28;20034;-82
2022/04/26 16:04:11;;;;;;;4.88;1.58;;;23.70;27.10;;;;;;5100341;27;20024;-77
2022/04/26 16:06:38;;;;;;;1.98;1.42;;;21.90;28.60;;;;;;5099402;28;20024;-79
2022/04/26 16:22:45;;;;;;;3.03;1.65;;;19.10;33.90;;;;;;5106184;28;20058;-74
2022/04/26 16:25:10;;;;;;;1.50;1.30;;;18.80;34.00;;;;;;5110777;28;20096;-75
2022/04/26 16:27:36;;;;;;;6.75;1.70;;;19.10;36.10;;;;;;5103260;28;20027;-75
2022/04/26 16:30:02;;;;;;;3.17;1.52;;;19.20;34.10;;;;;;5103317;28;20484;-74
2022/04/26 16:32:28;;;;;;;1.92;1.38;;;19.00;36.00;;;;;;5096613;28;20016;-75
2022/04/26 16:34:56;;;;;;;2.53;1.40;;;18.90;33.40;;;;;;5100159;28;20028;-75
2022/04/26 16:37:22;;;;;;;7.35;2.08;;;18.70;36.90;;;;;;5104222;28;20018;-75
2022/04/26 16:39:49;;;;;;;5.43;2.40;;;18.40;36.90;;;;;;5100301;28;20401;-74
2022/04/26 16:42:15;;;;;;;8.00;2.78;;;18.00;41.10;;;;;;5103008;28;20119;-75
2022/04/26 16:44:41;;;;;;;7.07;2.70;;;17.50;44.20;;;;;;5103735;28;20157;-73
2022/04/26 16:47:07;;;;;;;7.97;2.53;;;17.40;44.80;;;;;;5095878;28;20031;-76
2022/04/26 16:49:33;;;;;;;4.43;1.83;;;17.20;46.40;;;;;;5100917;28;20051;-74
2022/04/26 16:51:59;;;;;;;4.88;1.95;;;16.40;47.40;;;;;;5092952;28;20444;-74
2022/04/26 16:54:25;;;;;;;5.70;2.70;;;16.20;49.80;;;;;;5101667;28;20067;-75
2022/04/26 16:56:50;;;;;;;4.90;2.28;;;15.90;49.70;;;;;;5095776;28;20060;-74
2022/04/26 16:59:17;;;;;;;4.35;2.17;;;15.90;50.80;;;;;;5092918;28;20099;-74
2022/04/26 17:01:44;;;;;;;3.75;1.60;;;15.60;50.60;;;;;;5097977;28;20567;-74
2022/04/26 17:04:13;;;;;;;5.13;1.67;;;15.60;50.20;;;;;;5105862;28;20107;-75
2022/04/26 17:06:39;;;;;;;4.20;2.08;;;15.80;49.70;;;;;;5096984;28;20031;-74
2022/04/26 17:09:05;;;;;;;4.18;1.90;;;15.90;49.70;;;;;;5102550;28;20139;-74
2022/04/26 17:11:43;;;;;;;3.78;1.80;;;15.70;49.80;;;;;;5094805;28;20492;-75
2022/04/26 17:14:10;;;;;;;2.95;2.22;;;15.50;50.40;;;;;;5098388;28;20023;-75
2022/04/26 17:16:36;;;;;;;3.15;1.75;;;15.30;50.10;;;;;;5141219;22;20038;-81
2022/04/26 17:19:03;;;;;;;3.88;2.08;;;15.00;51.10;;;;;;5100247;28;20030;-86
2022/04/26 17:21:30;;;;;;;5.03;1.90;;;14.70;52.40;;;;;;5097661;28;20016;-82
2022/04/26 17:23:56;;;;;;;4.40;2.00;;;14.60;53.60;;;;;;5095927;28;20019;-81